DAL5616 KBOS-KIND
Flight info
| Callsign | DAL5616 |
|---|---|
| Flight time | N/A |
| Altitude | 38000 |
| Route | BLZZR6 BLZZR BAF Q480 AIR RINTE SNKPT2 |
| Aircraft | A320/M-SDE3FGHIRWY/LB1 |
Departure
| Time | 2026-05-07 00:14 |
|---|---|
| Airport | Boston Logan International Airport (KBOS) |
Arrival
| Time | N/A |
|---|---|
| Airport | Indianapolis International Airport (KIND) |
| Time | Latitude | Longitude | Altitude | Speed | Heading |
|---|---|---|---|---|---|
| 2026-05-06 23:50 | 42.36446 | -71.02294 | 30 ft | 0 kts | 78° |
| 2026-05-06 23:55 | 42.36446 | -71.02295 | 26 ft | 1 kts | 78° |
| 2026-05-06 23:55 | 42.36443 | -71.02316 | 30 ft | 3 kts | 82° |
| 2026-05-06 23:55 | 42.36441 | -71.02343 | 28 ft | 3 kts | 95° |
| 2026-05-06 23:56 | 42.36445 | -71.02367 | 28 ft | 3 kts | 130° |
| 2026-05-06 23:56 | 42.36454 | -71.02377 | 31 ft | 1 kts | 168° |
| 2026-05-06 23:57 | 42.36451 | -71.02376 | 28 ft | 3 kts | 169° |
| 2026-05-06 23:57 | 42.36395 | -71.02348 | 26 ft | 12 kts | 153° |
| 2026-05-06 23:58 | 42.36307 | -71.02338 | 27 ft | 13 kts | 184° |
| 2026-05-06 23:58 | 42.36213 | -71.02347 | 27 ft | 13 kts | 184° |
| 2026-05-06 23:58 | 42.36193 | -71.02348 | 25 ft | 0 kts | 184° |
| 2026-05-06 23:59 | 42.36187 | -71.02349 | 25 ft | 5 kts | 184° |
| 2026-05-06 23:59 | 42.36083 | -71.02320 | 27 ft | 19 kts | 151° |
| 2026-05-06 23:59 | 42.36001 | -71.02186 | 27 ft | 20 kts | 121° |
| 2026-05-07 00:00 | 42.35928 | -71.02023 | 25 ft | 21 kts | 121° |
| 2026-05-07 00:00 | 42.35856 | -71.01844 | 26 ft | 22 kts | 108° |
| 2026-05-07 00:00 | 42.35823 | -71.01634 | 25 ft | 22 kts | 98° |
| 2026-05-07 00:00 | 42.35903 | -71.01543 | 27 ft | 19 kts | 18° |
| 2026-05-07 00:01 | 42.36122 | -71.01436 | 25 ft | 45 kts | 20° |
| 2026-05-07 00:01 | 42.36353 | -71.01325 | 27 ft | 25 kts | 20° |
| 2026-05-07 00:01 | 42.36505 | -71.01251 | 26 ft | 17 kts | 19° |
| 2026-05-07 00:01 | 42.36623 | -71.01194 | 26 ft | 18 kts | 18° |
| 2026-05-07 00:02 | 42.36702 | -71.01157 | 26 ft | 7 kts | 20° |
| 2026-05-07 00:02 | 42.36716 | -71.01150 | 27 ft | 0 kts | 19° |
| 2026-05-07 00:04 | 42.36741 | -71.01142 | 26 ft | 6 kts | 8° |
| 2026-05-07 00:04 | 42.36765 | -71.01143 | 28 ft | 3 kts | 352° |
| 2026-05-07 00:04 | 42.36816 | -71.01182 | 25 ft | 9 kts | 318° |
| 2026-05-07 00:04 | 42.36882 | -71.01224 | 28 ft | 14 kts | 16° |
| 2026-05-07 00:05 | 42.36958 | -71.01141 | 25 ft | 16 kts | 41° |
| 2026-05-07 00:05 | 42.37107 | -71.01033 | 27 ft | 25 kts | 26° |
| 2026-05-07 00:05 | 42.37233 | -71.00950 | 27 ft | 11 kts | 26° |
| 2026-05-07 00:05 | 42.37247 | -71.00941 | 28 ft | 0 kts | 26° |
| 2026-05-07 00:06 | 42.37306 | -71.00905 | 25 ft | 25 kts | 21° |
| 2026-05-07 00:06 | 42.37520 | -71.00802 | 28 ft | 29 kts | 19° |
| 2026-05-07 00:06 | 42.37647 | -71.00740 | 28 ft | 5 kts | 20° |
| 2026-05-07 00:06 | 42.37680 | -71.00724 | 27 ft | 6 kts | 20° |
| 2026-05-07 00:07 | 42.37693 | -71.00717 | 27 ft | 8 kts | 20° |
| 2026-05-07 00:07 | 42.37764 | -71.00683 | 27 ft | 4 kts | 19° |
| 2026-05-07 00:07 | 42.37766 | -71.00682 | 25 ft | 0 kts | 19° |
| 2026-05-07 00:10 | 42.37771 | -71.00680 | 25 ft | 4 kts | 19° |
| 2026-05-07 00:11 | 42.37821 | -71.00652 | 25 ft | 7 kts | 34° |
| 2026-05-07 00:11 | 42.37830 | -71.00639 | 27 ft | 0 kts | 51° |
| 2026-05-07 00:11 | 42.37833 | -71.00633 | 26 ft | 3 kts | 56° |
| 2026-05-07 00:11 | 42.37837 | -71.00594 | 25 ft | 4 kts | 97° |
| 2026-05-07 00:12 | 42.37835 | -71.00583 | 25 ft | 0 kts | 107° |
| 2026-05-07 00:12 | 42.37817 | -71.00513 | 30 ft | 12 kts | 110° |
| 2026-05-07 00:13 | 42.37771 | -71.00485 | 27 ft | 0 kts | 192° |
| 2026-05-07 00:13 | 42.37766 | -71.00487 | 27 ft | 5 kts | 196° |
| 2026-05-07 00:14 | 42.37523 | -71.00604 | 27 ft | 72 kts | 200° |
| 2026-05-07 00:14 | 42.36852 | -71.00929 | 27 ft | 130 kts | 200° |
| 2026-05-07 00:14 | 42.35985 | -71.01355 | 589 ft | 127 kts | 203° |
| 2026-05-07 00:14 | 42.35181 | -71.01736 | 1327 ft | 120 kts | 192° |
| 2026-05-07 00:15 | 42.34365 | -71.01662 | 1970 ft | 122 kts | 175° |
| 2026-05-07 00:15 | 42.33533 | -71.00999 | 2214 ft | 160 kts | 140° |
| 2026-05-07 00:15 | 42.32809 | -70.99749 | 2529 ft | 178 kts | 138° |
| 2026-05-07 00:15 | 42.31959 | -70.98323 | 2749 ft | 207 kts | 135° |
| 2026-05-07 00:16 | 42.31326 | -70.96499 | 3346 ft | 224 kts | 107° |
| 2026-05-07 00:16 | 42.31310 | -70.94368 | 3986 ft | 232 kts | 80° |
| 2026-05-07 00:16 | 42.31636 | -70.92179 | 4535 ft | 244 kts | 79° |
| 2026-05-07 00:16 | 42.31978 | -70.89832 | 4909 ft | 267 kts | 79° |
| 2026-05-07 00:17 | 42.32349 | -70.87258 | 5281 ft | 291 kts | 80° |
| 2026-05-07 00:17 | 42.32718 | -70.84493 | 5900 ft | 305 kts | 85° |
| 2026-05-07 00:17 | 42.32673 | -70.81614 | 6681 ft | 309 kts | 103° |
| 2026-05-07 00:17 | 42.32118 | -70.78814 | 7501 ft | 309 kts | 115° |
| 2026-05-07 00:18 | 42.31176 | -70.76214 | 8368 ft | 306 kts | 130° |
| 2026-05-07 00:18 | 42.29773 | -70.74103 | 9203 ft | 299 kts | 149° |